createdAt,value
2019-03-15T00:02:02.915Z,5.87
2019-03-15T00:04:34.864Z,5.82
2019-03-15T00:07:08.724Z,5.80
2019-03-15T00:09:40.718Z,5.77
2019-03-15T00:12:12.658Z,5.80
2019-03-15T00:14:44.656Z,5.86
2019-03-15T00:17:16.624Z,5.84
2019-03-15T00:19:48.590Z,5.85
2019-03-15T00:22:20.551Z,5.86
2019-03-15T00:24:52.550Z,5.91
2019-03-15T00:27:24.510Z,5.90
2019-03-15T00:29:56.480Z,5.97
2019-03-15T00:32:28.489Z,5.96
2019-03-15T00:35:00.485Z,5.95
2019-03-15T00:37:32.413Z,5.99
2019-03-15T00:40:06.057Z,6.05
2019-03-15T00:42:38.023Z,6.04
2019-03-15T00:45:09.968Z,6.17
2019-03-15T00:47:41.937Z,6.16
2019-03-15T00:50:13.888Z,6.17
2019-03-15T00:52:45.865Z,6.20
2019-03-15T00:55:17.797Z,6.19
2019-03-15T00:57:49.767Z,6.14
2019-03-15T01:00:21.724Z,6.14
2019-03-15T01:02:53.728Z,6.12
2019-03-15T01:05:25.684Z,6.39
2019-03-15T01:07:57.633Z,6.21
2019-03-15T01:10:29.588Z,6.20
2019-03-15T01:13:01.564Z,6.29
2019-03-15T01:15:33.518Z,6.28
2019-03-15T01:18:05.502Z,6.24
2019-03-15T01:20:37.501Z,6.27
2019-03-15T01:23:09.464Z,6.17
2019-03-15T01:25:41.409Z,6.12
2019-03-15T01:28:13.377Z,6.03
2019-03-15T01:30:45.367Z,6.06
2019-03-15T01:33:17.311Z,6.01
2019-03-15T01:35:49.261Z,5.90
2019-03-15T01:38:21.202Z,5.82
2019-03-15T01:40:53.150Z,5.80
2019-03-15T01:43:25.117Z,5.99
2019-03-15T01:45:57.075Z,5.93
2019-03-15T01:48:29.027Z,5.88
2019-03-15T01:51:00.991Z,6.07
2019-03-15T01:53:32.952Z,6.15
2019-03-15T01:56:05.298Z,6.05
2019-03-15T01:58:37.264Z,5.99
2019-03-15T02:01:09.235Z,6.03
2019-03-15T02:03:41.208Z,6.17
2019-03-15T02:06:13.131Z,6.09
2019-03-15T02:08:45.093Z,6.03
2019-03-15T02:11:17.064Z,6.05
2019-03-15T02:13:49.039Z,6.07
2019-03-15T02:16:21.033Z,6.15
2019-03-15T02:18:52.978Z,6.14
2019-03-15T02:21:24.950Z,6.20
2019-03-15T02:23:56.922Z,6.15
2019-03-15T02:26:28.890Z,6.14
2019-03-15T02:29:00.855Z,6.07
2019-03-15T02:31:32.827Z,6.27
2019-03-15T02:34:04.811Z,6.14
2019-03-15T02:36:36.769Z,6.20
2019-03-15T02:39:08.741Z,6.18
2019-03-15T02:41:40.690Z,6.20
2019-03-15T02:44:12.899Z,6.26
2019-03-15T02:46:44.917Z,6.23
2019-03-15T02:49:16.861Z,6.21
2019-03-15T02:51:49.943Z,6.33
2019-03-15T02:54:22.400Z,6.20
2019-03-15T02:56:54.373Z,6.23
2019-03-15T02:59:26.318Z,6.19
2019-03-15T03:01:58.297Z,6.14
2019-03-15T03:04:30.254Z,6.10
2019-03-15T03:07:02.218Z,6.15
2019-03-15T03:09:34.388Z,6.17
2019-03-15T03:12:06.447Z,6.23
2019-03-15T03:14:38.404Z,6.26
2019-03-15T03:17:10.368Z,6.31
2019-03-15T03:19:42.326Z,6.19
2019-03-15T03:22:14.303Z,6.17
2019-03-15T03:24:46.273Z,6.23
2019-03-15T03:27:18.252Z,6.29
2019-03-15T03:29:50.192Z,6.27
2019-03-15T03:32:22.175Z,6.24
2019-03-15T03:34:54.102Z,6.42
2019-03-15T03:37:26.066Z,6.47
2019-03-15T03:39:58.005Z,6.39
2019-03-15T03:42:29.956Z,6.29
2019-03-15T03:45:01.896Z,6.40
2019-03-15T03:47:33.894Z,6.36
2019-03-15T03:50:05.956Z,6.39
2019-03-15T03:52:37.912Z,6.40
2019-03-15T03:55:09.906Z,6.47
2019-03-15T03:57:41.857Z,6.36
2019-03-15T04:00:14.189Z,6.46
2019-03-15T04:02:46.162Z,6.49
2019-03-15T04:05:18.101Z,6.45
2019-03-15T04:07:50.089Z,6.43
2019-03-15T04:10:22.036Z,6.43
2019-03-15T04:12:54.010Z,6.42
2019-03-15T04:15:25.926Z,6.45
2019-03-15T04:17:57.902Z,6.40
2019-03-15T04:20:29.924Z,6.37
2019-03-15T04:23:01.893Z,6.41
2019-03-15T04:25:33.876Z,6.33
2019-03-15T04:28:05.847Z,6.29
2019-03-15T04:30:37.838Z,6.39
2019-03-15T04:33:09.779Z,6.30
2019-03-15T04:35:41.730Z,6.30
2019-03-15T04:38:13.687Z,6.28
2019-03-15T04:40:45.912Z,6.23
2019-03-15T04:43:17.861Z,6.16
2019-03-15T04:45:49.832Z,6.18
2019-03-15T04:48:21.768Z,6.17
2019-03-15T04:50:53.768Z,6.18
2019-03-15T04:53:25.704Z,6.20
2019-03-15T04:55:57.669Z,6.18
2019-03-15T04:58:29.615Z,6.11
2019-03-15T05:01:01.598Z,6.14
2019-03-15T05:03:33.552Z,6.13
2019-03-15T05:06:05.521Z,6.16
2019-03-15T05:08:37.488Z,6.17
2019-03-15T05:11:09.466Z,6.21
2019-03-15T05:13:41.424Z,6.20
2019-03-15T05:16:13.426Z,6.24
2019-03-15T05:18:45.375Z,6.29
2019-03-15T05:21:17.466Z,6.27
2019-03-15T05:23:49.406Z,6.22
2019-03-15T05:26:21.376Z,6.25
2019-03-15T05:28:53.345Z,6.20
2019-03-15T05:31:25.313Z,6.21
2019-03-15T05:33:57.256Z,6.25
2019-03-15T05:36:29.273Z,6.31
2019-03-15T05:39:01.243Z,6.31
2019-03-15T05:41:33.201Z,6.36
2019-03-15T05:44:05.179Z,6.50
2019-03-15T05:46:37.195Z,6.45
2019-03-15T05:49:09.166Z,6.49
2019-03-15T05:51:41.144Z,6.45
2019-03-15T05:54:13.114Z,6.51
2019-03-15T05:56:45.078Z,6.48
2019-03-15T05:59:17.064Z,6.43
2019-03-15T06:01:49.067Z,6.49
2019-03-15T06:04:21.056Z,6.45
2019-03-15T06:06:53.037Z,6.47
2019-03-15T06:09:25.017Z,6.49
2019-03-15T06:11:57.021Z,6.53
2019-03-15T06:14:29.013Z,6.60
2019-03-15T06:17:00.929Z,6.66
2019-03-15T06:19:32.957Z,6.65
2019-03-15T06:22:04.949Z,6.67
2019-03-15T06:24:36.956Z,6.69
2019-03-15T06:27:09.011Z,6.82
2019-03-15T06:29:40.971Z,6.65
2019-03-15T06:32:12.951Z,6.69
2019-03-15T06:34:44.955Z,6.59
2019-03-15T06:37:16.889Z,6.58
2019-03-15T06:39:48.867Z,6.63
2019-03-15T06:42:20.831Z,6.61
2019-03-15T06:44:57.991Z,6.60
2019-03-15T06:47:26.699Z,6.67
2019-03-15T06:49:58.678Z,6.68
2019-03-15T06:52:30.610Z,6.62
2019-03-15T06:55:05.349Z,6.70
2019-03-15T06:57:36.565Z,6.72
2019-03-15T07:00:08.873Z,6.66
2019-03-15T07:02:40.833Z,6.73
2019-03-15T07:05:12.939Z,6.80
2019-03-15T07:07:45.548Z,6.76
2019-03-15T07:10:17.700Z,6.80
2019-03-15T07:12:49.657Z,6.73
2019-03-15T07:15:21.648Z,6.82
2019-03-15T07:17:53.600Z,6.92
2019-03-15T07:20:25.613Z,6.85
2019-03-15T07:22:57.566Z,6.81
2019-03-15T07:25:29.540Z,6.90
2019-03-15T07:28:01.495Z,6.76
2019-03-15T07:30:33.504Z,6.81
2019-03-15T07:33:05.451Z,6.89
2019-03-15T07:35:37.439Z,6.80
2019-03-15T07:38:09.405Z,6.75
2019-03-15T07:40:41.380Z,6.73
2019-03-15T07:43:13.340Z,6.70
2019-03-15T07:45:45.326Z,6.75
2019-03-15T07:48:22.452Z,6.73
2019-03-15T07:50:51.189Z,6.73
2019-03-15T07:53:23.138Z,6.69
2019-03-15T07:55:55.152Z,6.77
2019-03-15T07:58:27.161Z,6.69
2019-03-15T08:00:59.185Z,6.79
2019-03-15T08:03:31.184Z,6.89
2019-03-15T08:06:03.222Z,6.81
2019-03-15T08:08:35.341Z,6.72
2019-03-15T08:11:07.587Z,6.75
2019-03-15T08:13:39.545Z,6.75
2019-03-15T08:16:11.520Z,6.80
2019-03-15T08:18:43.487Z,6.79
2019-03-15T08:21:15.542Z,6.83
2019-03-15T08:23:47.529Z,6.90
2019-03-15T08:26:19.526Z,6.95
2019-03-15T08:28:51.528Z,7.02
2019-03-15T08:31:23.619Z,7.02
2019-03-15T08:33:55.608Z,7.03
2019-03-15T08:36:27.584Z,6.90
2019-03-15T08:38:59.622Z,6.89
2019-03-15T08:41:31.593Z,6.95
2019-03-15T08:44:03.652Z,7.13
2019-03-15T08:46:35.742Z,7.09
2019-03-15T08:49:07.746Z,7.15
2019-03-15T08:51:39.722Z,7.04
2019-03-15T08:54:12.197Z,7.14
2019-03-15T08:56:44.164Z,7.28
2019-03-15T08:59:16.213Z,7.26
2019-03-15T09:01:48.232Z,7.21
2019-03-15T09:04:21.774Z,7.27
2019-03-15T09:06:53.976Z,7.33
2019-03-15T09:09:25.979Z,7.34
2019-03-15T09:11:57.935Z,7.28
2019-03-15T09:14:29.919Z,7.36
2019-03-15T09:17:01.920Z,7.31
2019-03-15T09:19:33.920Z,7.40
2019-03-15T09:22:05.889Z,7.40
2019-03-15T09:24:37.912Z,7.41
2019-03-15T09:27:10.710Z,7.40
2019-03-15T09:29:42.770Z,7.52
2019-03-15T09:32:14.758Z,7.67
2019-03-15T09:34:46.765Z,7.51
2019-03-15T09:37:18.732Z,7.49
2019-03-15T09:39:50.750Z,7.45
2019-03-15T09:42:22.739Z,7.40
2019-03-15T09:44:54.805Z,7.58
2019-03-15T09:47:26.816Z,7.65
2019-03-15T09:49:59.013Z,7.70
2019-03-15T09:52:31.003Z,7.71
2019-03-15T09:55:03.479Z,7.77
2019-03-15T09:57:35.467Z,7.66
2019-03-15T10:00:10.986Z,7.66
2019-03-15T10:02:44.089Z,7.65
2019-03-15T10:05:16.086Z,7.89
2019-03-15T10:07:48.099Z,7.99
2019-03-15T10:10:20.061Z,8.03
2019-03-15T10:13:04.731Z,8.12
2019-03-15T10:15:26.675Z,8.02
2019-03-15T10:17:58.850Z,8.15
2019-03-15T10:20:30.829Z,8.12
2019-03-15T10:23:06.084Z,8.15
2019-03-15T10:25:46.866Z,8.12
2019-03-15T10:28:10.625Z,8.20
2019-03-15T10:30:42.621Z,8.23
2019-03-15T10:33:14.632Z,8.39
2019-03-15T10:35:46.627Z,8.45
2019-03-15T10:38:18.614Z,8.37
2019-03-15T10:40:50.547Z,8.34
2019-03-15T10:43:22.530Z,8.40
2019-03-15T10:45:54.486Z,8.36
2019-03-15T10:48:26.472Z,8.33
2019-03-15T10:50:58.475Z,8.43
2019-03-15T10:53:30.474Z,8.44
2019-03-15T10:56:02.464Z,8.36
2019-03-15T10:58:34.439Z,8.48
2019-03-15T11:01:06.436Z,8.54
2019-03-15T11:03:38.449Z,8.66
2019-03-15T11:06:10.491Z,8.73
2019-03-15T11:11:22.810Z,8.81
2019-03-15T11:13:55.736Z,8.89
2019-03-15T11:16:48.114Z,8.92
2019-03-15T11:19:20.123Z,8.94
2019-03-15T11:21:52.087Z,9.09
2019-03-15T11:24:44.009Z,9.06
2019-03-15T11:27:16.042Z,8.99
2019-03-15T11:29:48.063Z,9.05
2019-03-15T11:32:20.027Z,9.05
2019-03-15T11:34:52.135Z,9.07
2019-03-15T11:37:24.122Z,9.01
2019-03-15T11:39:56.111Z,8.98
2019-03-15T11:42:28.128Z,9.10
2019-03-15T11:45:00.260Z,9.13
2019-03-15T11:47:50.250Z,9.08
2019-03-15T11:50:07.930Z,9.09
2019-03-15T11:52:39.938Z,9.17
2019-03-15T11:55:11.956Z,9.29
2019-03-15T11:57:44.042Z,9.34
2019-03-15T12:00:16.058Z,9.35
2019-03-15T12:02:48.028Z,9.38
2019-03-15T12:05:20.018Z,9.46
2019-03-15T12:07:51.980Z,9.37
2019-03-15T12:10:23.964Z,9.43
2019-03-15T12:12:55.966Z,9.48
2019-03-15T12:15:28.001Z,9.45
2019-03-15T12:17:59.950Z,9.50
2019-03-15T12:20:32.034Z,9.62
2019-03-15T12:23:04.066Z,9.64
2019-03-15T12:25:36.030Z,9.76
2019-03-15T12:28:08.082Z,9.73
2019-03-15T12:30:42.904Z,9.73
2019-03-15T12:33:14.043Z,9.71
2019-03-15T12:35:46.032Z,9.80
2019-03-15T12:38:18.042Z,9.87
2019-03-15T12:40:50.028Z,9.76
2019-03-15T12:43:22.029Z,9.74
2019-03-15T12:45:54.177Z,9.84
2019-03-15T12:48:26.171Z,9.86
2019-03-15T12:50:58.182Z,9.83
2019-03-15T12:53:30.158Z,9.81
2019-03-15T12:56:02.159Z,9.86
2019-03-15T12:58:34.193Z,9.92
2019-03-15T13:01:06.216Z,9.88
2019-03-15T13:03:38.271Z,9.83
2019-03-15T13:06:10.248Z,9.90
2019-03-15T13:08:42.244Z,9.87
2019-03-15T13:11:14.239Z,9.94
2019-03-15T13:13:46.316Z,9.91
2019-03-15T13:16:18.305Z,10.02
2019-03-15T13:18:50.304Z,10.07
2019-03-15T13:21:22.308Z,10.02
2019-03-15T13:23:54.315Z,9.93
2019-03-15T13:26:28.814Z,9.96
2019-03-15T13:29:00.231Z,10.03
2019-03-15T13:31:32.230Z,10.06
2019-03-15T13:34:05.892Z,10.06
2019-03-15T13:36:37.876Z,10.13
2019-03-15T13:39:09.881Z,10.13
2019-03-15T13:41:41.875Z,10.10
2019-03-15T13:44:13.888Z,10.14
2019-03-15T13:46:45.901Z,10.18
2019-03-15T13:49:17.864Z,10.21
2019-03-15T13:51:49.842Z,10.15
2019-03-15T13:54:21.819Z,10.20
2019-03-15T13:56:53.817Z,10.18
2019-03-15T13:59:25.875Z,10.30
2019-03-15T14:01:57.858Z,10.34
2019-03-15T14:04:29.842Z,10.29
2019-03-15T14:07:01.842Z,10.33
2019-03-15T14:09:33.839Z,10.45
2019-03-15T14:12:05.834Z,10.45
2019-03-15T14:14:37.893Z,10.38
2019-03-15T14:17:09.952Z,10.30
2019-03-15T14:19:41.943Z,10.30
2019-03-15T14:22:13.949Z,10.41
2019-03-15T14:24:45.986Z,10.37
2019-03-15T14:27:18.031Z,10.31
2019-03-15T14:29:50.133Z,10.33
2019-03-15T14:32:22.129Z,10.33
2019-03-15T14:34:54.169Z,10.33
2019-03-15T14:37:26.296Z,10.31
2019-03-15T14:39:58.479Z,10.31
2019-03-15T14:42:30.555Z,10.36
2019-03-15T14:45:02.874Z,10.40
2019-03-15T14:47:34.858Z,10.39
2019-03-15T14:50:06.977Z,10.40
2019-03-15T14:52:39.017Z,10.50
2019-03-15T14:55:11.043Z,10.38
2019-03-15T14:57:52.168Z,10.43
2019-03-15T15:00:17.120Z,10.46
2019-03-15T15:02:49.157Z,10.44
2019-03-15T15:05:21.119Z,10.34
2019-03-15T15:07:53.130Z,10.34
2019-03-15T15:10:25.151Z,10.43
2019-03-15T15:12:57.191Z,10.43
2019-03-15T15:15:29.233Z,10.45
2019-03-15T15:18:01.304Z,10.42
2019-03-15T15:20:33.346Z,10.34
2019-03-15T15:23:05.471Z,10.34
2019-03-15T15:25:37.478Z,10.41
2019-03-15T15:28:09.574Z,10.55
2019-03-15T15:30:41.623Z,10.53
2019-03-15T15:33:13.649Z,10.59
2019-03-15T15:35:45.667Z,10.54
2019-03-15T15:38:17.825Z,10.51
2019-03-15T15:40:49.910Z,10.43
2019-03-15T15:43:22.018Z,10.48
2019-03-15T15:45:54.023Z,10.49
2019-03-15T15:48:26.168Z,10.49
2019-03-15T15:50:58.267Z,10.44
2019-03-15T15:53:30.361Z,10.44
2019-03-15T15:56:02.437Z,10.45
2019-03-15T15:58:36.896Z,10.45
2019-03-15T16:01:08.885Z,10.47
2019-03-15T16:03:40.899Z,10.54
2019-03-15T16:06:12.937Z,10.48
2019-03-15T16:08:44.958Z,10.51
2019-03-15T16:11:16.990Z,10.50
2019-03-15T16:13:49.156Z,10.56
2019-03-15T16:16:24.164Z,10.55
2019-03-15T16:18:58.461Z,10.64
2019-03-15T16:21:32.701Z,10.56
2019-03-15T16:24:04.745Z,10.60
2019-03-15T16:26:36.753Z,10.58
2019-03-15T16:29:08.836Z,10.58
2019-03-15T16:31:40.853Z,10.59
2019-03-15T16:34:16.449Z,10.73
2019-03-15T16:36:48.480Z,10.85
2019-03-15T16:39:20.475Z,10.76
2019-03-15T16:41:53.789Z,10.77
2019-03-15T16:44:25.846Z,10.73
2019-03-15T16:46:57.863Z,10.72
2019-03-15T16:49:29.983Z,10.66
2019-03-15T16:52:02.006Z,10.77
2019-03-15T16:54:37.073Z,10.74
2019-03-15T16:57:09.154Z,10.65
2019-03-15T16:59:41.181Z,10.73
2019-03-15T17:02:13.282Z,10.69
2019-03-15T17:04:45.357Z,10.78
2019-03-15T17:07:17.420Z,10.79
2019-03-15T17:09:51.509Z,10.75
2019-03-15T17:12:23.553Z,10.87
2019-03-15T17:14:55.596Z,10.79
2019-03-15T17:17:27.690Z,10.83
2019-03-15T17:19:59.688Z,10.93
2019-03-15T17:22:31.751Z,10.95
2019-03-15T17:25:03.892Z,10.81
2019-03-15T17:27:35.931Z,10.82
2019-03-15T17:30:09.925Z,10.82
2019-03-15T17:32:42.011Z,10.80
2019-03-15T17:35:14.243Z,10.82
2019-03-15T17:40:27.956Z,10.88
2019-03-15T17:43:00.082Z,10.76
2019-03-15T17:45:32.115Z,10.81
2019-03-15T17:48:04.145Z,10.79
2019-03-15T17:50:37.899Z,10.81
2019-03-15T17:53:09.929Z,10.78
2019-03-15T17:55:41.946Z,10.82
2019-03-15T17:58:14.033Z,10.79
2019-03-15T18:01:26.891Z,10.75
2019-03-15T18:03:58.968Z,10.70
2019-03-15T18:06:31.068Z,10.68
2019-03-15T18:12:02.612Z,10.63
2019-03-15T18:14:34.658Z,10.65
2019-03-15T18:17:06.719Z,10.66
2019-03-15T18:19:38.816Z,10.63
2019-03-15T18:22:10.853Z,10.65
2019-03-15T18:24:43.337Z,10.53
2019-03-15T18:27:15.467Z,10.53
2019-03-15T18:29:47.603Z,10.48
2019-03-15T18:32:19.673Z,10.52
2019-03-15T18:34:54.454Z,10.44
2019-03-15T18:37:26.541Z,10.44
2019-03-15T18:39:59.134Z,10.48
2019-03-15T18:42:31.204Z,10.44
2019-03-15T18:45:04.272Z,10.49
2019-03-15T18:47:36.301Z,10.54
2019-03-15T18:50:10.901Z,10.50
2019-03-15T18:52:42.944Z,10.36
2019-03-15T18:55:17.910Z,10.36
2019-03-15T18:57:49.970Z,10.32
2019-03-15T19:00:22.004Z,10.40
2019-03-15T19:02:54.073Z,10.42
2019-03-15T19:05:26.201Z,10.42
2019-03-15T19:07:58.262Z,10.43
2019-03-15T19:10:32.326Z,10.31
2019-03-15T19:13:04.355Z,10.36
2019-03-15T19:15:37.903Z,10.35
2019-03-15T19:18:09.974Z,10.35
2019-03-15T19:20:42.202Z,10.44
2019-03-15T19:23:17.791Z,10.38
2019-03-15T19:25:54.124Z,10.38
2019-03-15T19:28:26.341Z,10.41
2019-03-15T19:31:00.206Z,10.41
2019-03-15T19:33:38.547Z,10.43
2019-03-15T19:36:10.683Z,10.46
2019-03-15T19:38:42.691Z,10.46
2019-03-15T19:41:17.524Z,10.46
2019-03-15T19:43:52.570Z,10.40
2019-03-15T19:46:24.612Z,10.37
2019-03-15T19:48:56.650Z,10.50
2019-03-15T19:51:28.733Z,10.50
2019-03-15T19:54:02.606Z,10.47
2019-03-15T19:56:34.785Z,10.47
2019-03-15T19:59:06.862Z,10.48
2019-03-15T20:01:38.893Z,10.51
2019-03-15T20:04:12.758Z,10.43
2019-03-15T20:06:49.748Z,10.47
2019-03-15T20:09:21.050Z,10.46
2019-03-15T20:11:53.264Z,10.54
2019-03-15T20:14:25.332Z,10.54
2019-03-15T20:16:57.363Z,10.53
2019-03-15T20:19:29.433Z,10.45
2019-03-15T20:22:03.143Z,10.43
2019-03-15T20:24:38.244Z,10.46
2019-03-15T20:27:10.406Z,10.46
2019-03-15T20:29:42.471Z,10.33
2019-03-15T20:32:14.468Z,10.48
2019-03-15T20:34:46.543Z,10.49
2019-03-15T20:37:18.693Z,10.42
2019-03-15T20:39:51.019Z,10.33
2019-03-15T20:42:23.273Z,10.44
2019-03-15T20:44:58.366Z,10.42
2019-03-15T20:47:30.504Z,10.42
2019-03-15T20:50:02.942Z,10.38
2019-03-15T20:52:35.026Z,10.38
2019-03-15T20:55:09.346Z,10.40
2019-03-15T20:57:41.616Z,10.44
2019-03-15T21:00:14.209Z,10.41
2019-03-15T21:02:46.392Z,10.36
2019-03-15T21:05:21.109Z,10.36
2019-03-15T21:07:53.144Z,10.28
2019-03-15T21:10:25.988Z,10.28
2019-03-15T21:12:58.099Z,10.26
2019-03-15T21:15:30.148Z,10.35
2019-03-15T21:18:04.274Z,10.35
2019-03-15T21:20:36.415Z,10.34
2019-03-15T21:23:08.404Z,10.34
2019-03-15T21:25:40.641Z,10.28
2019-03-15T21:28:12.630Z,10.20
2019-03-15T21:30:48.789Z,10.31
2019-03-15T21:33:18.593Z,10.31
2019-03-15T21:35:51.742Z,10.19
2019-03-15T21:38:26.829Z,10.25
2019-03-15T21:40:58.820Z,10.25
2019-03-15T21:43:31.031Z,10.19
2019-03-15T21:46:03.157Z,10.34
2019-03-15T21:48:35.225Z,10.35
2019-03-15T21:51:07.320Z,10.35
2019-03-15T21:53:39.385Z,10.41
2019-03-15T21:56:11.462Z,10.41
2019-03-15T21:58:43.489Z,10.31
2019-03-15T22:01:15.522Z,10.27
2019-03-15T22:03:47.585Z,10.27
2019-03-15T22:06:19.594Z,10.22
2019-03-15T22:08:51.737Z,10.25
2019-03-15T22:11:23.815Z,10.19
2019-03-15T22:13:55.962Z,10.27
2019-03-15T22:16:28.019Z,10.27
2019-03-15T22:19:01.195Z,10.24
2019-03-15T22:21:33.371Z,10.22
2019-03-15T22:24:05.431Z,10.37
2019-03-15T22:26:37.421Z,10.34
2019-03-15T22:29:09.466Z,10.27
2019-03-15T22:31:41.519Z,10.27
2019-03-15T22:34:17.462Z,10.31
2019-03-15T22:36:49.491Z,10.29
2019-03-15T22:39:21.538Z,10.28
2019-03-15T22:41:53.543Z,10.19
2019-03-15T22:44:25.695Z,10.22
2019-03-15T22:46:57.762Z,10.20
2019-03-15T22:49:29.794Z,10.12
2019-03-15T22:52:01.762Z,10.12
2019-03-15T22:54:33.784Z,10.15
2019-03-15T22:57:05.865Z,10.21
2019-03-15T22:59:37.898Z,10.26
2019-03-15T23:02:10.145Z,10.31
2019-03-15T23:04:42.128Z,10.34
2019-03-15T23:07:14.168Z,10.32
2019-03-15T23:09:46.266Z,10.25
2019-03-15T23:12:18.331Z,10.33
2019-03-15T23:14:51.760Z,10.33
2019-03-15T23:17:23.845Z,10.30
2019-03-15T23:19:55.832Z,10.45
2019-03-15T23:22:27.880Z,10.34
2019-03-15T23:24:59.892Z,10.28
2019-03-15T23:27:31.926Z,10.38
2019-03-15T23:30:04.126Z,10.29
2019-03-15T23:32:36.149Z,10.30
2019-03-15T23:35:08.145Z,10.42
2019-03-15T23:37:40.143Z,10.34
2019-03-15T23:40:12.120Z,10.25
2019-03-15T23:42:44.162Z,10.26
2019-03-15T23:45:16.169Z,10.25
2019-03-15T23:47:48.217Z,10.34
2019-03-15T23:50:20.178Z,10.19
2019-03-15T23:52:52.169Z,10.20
2019-03-15T23:55:24.172Z,10.32
2019-03-15T23:57:56.213Z,10.28
